CheckWX is a tool to help pilots better visualize weather data.  It is not intended as a substitute for an official pre-flight weather briefing.

08:53:50 UTC

KILG TAF
New Castle Airport
Wilmington, Delaware, USA
KILG 180804Z 1808/1906 VRB02KT 3SM BR SCT005 TEMPO 1808/1811 1SM BR FM181400 19004KT 5SM -SHRA BR OVC025 FM182000 22005KT P6SM SHRA VCTS BKN040CB FM190000 27005KT P6SM VCSH BKN040

Jun-18@
08:00 UTC

Jun-18 @ 08:00 UTC

Jun-18@
14:00 UTC

Jun-18 @ 14:00 UTC

KILG 180804Z 1808/1906 VRB02KT 3SM BR SCT005
Wind
  • Variable at 2 KTS
Conditions
Mist
Cloud Levels
  • Scattered at 500' AGL

Jun-18@
08:00 UTC

Jun-18 @ 08:00 UTC

Jun-18@
11:00 UTC

Jun-18 @ 11:00 UTC

TEMPO 1808/1811 1SM BR

Temporary

Temporary Changes expected for less than half the time period

Conditions
Mist

Jun-18@
14:00 UTC

Jun-18 @ 14:00 UTC

Jun-18@
20:00 UTC

Jun-18 @ 20:00 UTC

FM181400 19004KT 5SM -SHRA BR OVC025

From

From Standard forecast or significant change

Wind
  • 190° at 4 KTS
Conditions
Light Rain, Mist
Cloud Levels
  • Overcast at 2,500' AGL

Jun-18@
20:00 UTC

Jun-18 @ 20:00 UTC

Jun-19@
00:00 UTC

Jun-19 @ 00:00 UTC

FM182000 22005KT P6SM SHRA VCTS BKN040CB

From

From Standard forecast or significant change

Wind
  • 220° at 5 KTS
Conditions
Rain, Area Thunderstorm
Cloud Levels
  • Broken at 4,000' AGL

Jun-19@
00:00 UTC

Jun-19 @ 00:00 UTC

Jun-19@
06:00 UTC

Jun-19 @ 06:00 UTC

FM190000 27005KT P6SM VCSH BKN040

From

From Standard forecast or significant change

Wind
  • 270° at 5 KTS
Cloud Levels
  • Broken at 4,000' AGL